createdAt,value
2023-03-26T00:02:45.208Z,98548.88
2023-03-26T00:05:48.415Z,98550.72
2023-03-26T00:08:51.924Z,98546.28
2023-03-26T00:11:54.167Z,98542.25
2023-03-26T00:14:56.309Z,98540.22
2023-03-26T00:17:58.435Z,98545.94
2023-03-26T00:21:06.225Z,98543.47
2023-03-26T00:24:15.276Z,98548.19
2023-03-26T00:27:17.726Z,98545.41
2023-03-26T00:30:20.494Z,98543.75
2023-03-26T00:33:23.161Z,98544.19
2023-03-26T00:36:26.936Z,98537.38
2023-03-26T00:39:33.757Z,98537.22
2023-03-26T00:42:36.466Z,98535.88
2023-03-26T00:45:38.528Z,98540.19
2023-03-26T00:48:45.887Z,98533.09
2023-03-26T00:51:48.774Z,98543.88
2023-03-26T00:54:54.195Z,98539.75
2023-03-26T00:57:56.502Z,98533.44
2023-03-26T01:01:03.099Z,98540.44
2023-03-26T01:04:27.910Z,98535.50
2023-03-26T01:07:31.299Z,98531.22
2023-03-26T01:10:38.785Z,98526.81
2023-03-26T01:13:48.492Z,98534.09
2023-03-26T01:16:56.962Z,98540.50
2023-03-26T01:20:13.450Z,98542.94
2023-03-26T01:23:23.939Z,98543.47
2023-03-26T01:26:54.106Z,98539.41
2023-03-26T01:30:02.092Z,98540.34
2023-03-26T01:33:26.557Z,98540.22
2023-03-26T01:36:51.793Z,98537.91
2023-03-26T01:39:58.277Z,98527.69
2023-03-26T01:43:27.591Z,98529.66
2023-03-26T01:46:36.340Z,98537.19
2023-03-26T01:49:39.083Z,98526.69
2023-03-26T01:52:41.341Z,98527.94
2023-03-26T01:55:56.230Z,98536.03
2023-03-26T01:59:09.182Z,98532.84
2023-03-26T02:02:17.291Z,98534.81
2023-03-26T02:05:36.139Z,98532.34
2023-03-26T02:08:42.794Z,98538.41
2023-03-26T02:11:45.433Z,98534.28
2023-03-26T02:14:47.638Z,98540.06
2023-03-26T02:17:49.948Z,98534.66
2023-03-26T02:20:56.011Z,98532.88
2023-03-26T02:24:03.763Z,98532.47
2023-03-26T02:27:09.637Z,98532.59
2023-03-26T02:30:25.817Z,98534.97
2023-03-26T02:33:32.554Z,98541.72
2023-03-26T02:36:36.129Z,98538.22
2023-03-26T02:39:39.607Z,98553.09
2023-03-26T02:42:52.774Z,98547.34
2023-03-26T02:45:55.414Z,98555.94
2023-03-26T02:49:16.674Z,98556.59
2023-03-26T02:52:19.704Z,98565.00
2023-03-26T02:55:24.258Z,98561.22
2023-03-26T02:58:30.188Z,98578.88
2023-03-26T03:01:35.116Z,98579.06
2023-03-26T03:04:37.547Z,98584.41
2023-03-26T03:07:40.334Z,98584.59
2023-03-26T03:10:43.644Z,98584.81
2023-03-26T03:13:53.799Z,98589.22
2023-03-26T03:17:01.382Z,98586.75
2023-03-26T03:20:05.127Z,98587.69
2023-03-26T03:23:09.028Z,98582.13
2023-03-26T03:26:15.656Z,98593.81
2023-03-26T03:29:21.385Z,98583.34
2023-03-26T03:32:24.666Z,98585.75
2023-03-26T03:35:30.485Z,98587.22
2023-03-26T03:38:34.614Z,98577.97
2023-03-26T03:41:37.026Z,98573.16
2023-03-26T03:44:41.933Z,98577.09
2023-03-26T03:47:56.441Z,98570.53
2023-03-26T03:51:19.711Z,98579.03
2023-03-26T03:54:24.774Z,98570.84
2023-03-26T03:57:54.276Z,98561.28
2023-03-26T04:01:04.275Z,98557.94
2023-03-26T04:04:26.739Z,98563.28
2023-03-26T04:07:40.446Z,98563.34
2023-03-26T04:10:43.961Z,98565.50
2023-03-26T04:14:21.300Z,98576.41
2023-03-26T04:17:33.265Z,98576.47
2023-03-26T04:20:35.457Z,98576.53
2023-03-26T04:23:37.774Z,98576.97
2023-03-26T04:26:58.327Z,98582.50
2023-03-26T04:30:08.341Z,98583.88
2023-03-26T04:33:15.480Z,98587.34
2023-03-26T04:36:27.723Z,98601.66
2023-03-26T04:39:30.428Z,98598.00
2023-03-26T04:43:02.538Z,98599.53
2023-03-26T04:46:35.174Z,98602.00
2023-03-26T04:49:49.950Z,98599.44
2023-03-26T04:52:57.263Z,98600.22
2023-03-26T04:56:38.255Z,98603.13
2023-03-26T05:00:15.030Z,98603.31
2023-03-26T05:03:21.043Z,98603.72
2023-03-26T05:06:28.020Z,98618.47
2023-03-26T05:09:30.885Z,98611.78
2023-03-26T05:12:52.118Z,98605.53
2023-03-26T05:16:01.229Z,98598.25
2023-03-26T05:19:20.818Z,98602.00
2023-03-26T05:22:23.119Z,98602.84
2023-03-26T05:25:44.362Z,98607.56
2023-03-26T05:28:56.954Z,98621.56
2023-03-26T05:32:12.423Z,98598.31
2023-03-26T05:35:17.332Z,98616.81
2023-03-26T05:38:19.830Z,98613.84
2023-03-26T05:41:22.826Z,98620.84
2023-03-26T05:44:25.648Z,98632.75
2023-03-26T05:47:27.984Z,98629.03
2023-03-26T05:50:33.480Z,98627.34
2023-03-26T05:53:36.636Z,98634.44
2023-03-26T05:57:01.700Z,98632.34
2023-03-26T06:00:24.275Z,98632.03
2023-03-26T06:03:28.919Z,98640.97
2023-03-26T06:06:49.526Z,98640.00
2023-03-26T06:09:52.166Z,98647.81
2023-03-26T06:12:55.543Z,98651.38
2023-03-26T06:15:58.431Z,98643.94
2023-03-26T06:19:05.587Z,98646.97
2023-03-26T06:22:21.364Z,98647.31
2023-03-26T06:25:53.019Z,98645.25
2023-03-26T06:29:14.678Z,98645.06
2023-03-26T06:32:22.715Z,98654.13
2023-03-26T06:35:32.512Z,98648.19
2023-03-26T06:38:34.891Z,98641.00
2023-03-26T06:41:39.716Z,98645.59
2023-03-26T06:45:01.712Z,98648.19
2023-03-26T06:48:09.922Z,98642.28
2023-03-26T06:51:31.802Z,98644.28
2023-03-26T06:54:52.475Z,98643.66
2023-03-26T06:58:21.288Z,98638.94
2023-03-26T07:01:41.491Z,98635.94
2023-03-26T07:05:06.996Z,98638.25
2023-03-26T07:08:27.598Z,98634.03
2023-03-26T07:11:48.314Z,98632.50
2023-03-26T07:15:13.741Z,98637.00
2023-03-26T07:18:38.547Z,98645.78
2023-03-26T07:21:43.808Z,98650.66
2023-03-26T07:25:21.679Z,98639.09
2023-03-26T07:29:34.009Z,98643.94
2023-03-26T07:33:03.789Z,98641.69
2023-03-26T07:36:31.148Z,98646.53
2023-03-26T07:40:31.718Z,98640.75
2023-03-26T07:44:44.103Z,98643.19
2023-03-26T07:47:49.696Z,98646.66
2023-03-26T07:51:30.114Z,98631.34
2023-03-26T07:54:51.491Z,98637.44
2023-03-26T07:58:21.260Z,98626.25
2023-03-26T08:02:20.105Z,98640.59
2023-03-26T08:05:43.517Z,98639.50
2023-03-26T08:09:00.351Z,98637.25
2023-03-26T08:12:59.907Z,98641.16
2023-03-26T08:16:20.034Z,98640.00
2023-03-26T08:19:41.301Z,98644.63
2023-03-26T08:22:54.199Z,98631.84
2023-03-26T08:26:22.367Z,98643.09
2023-03-26T08:30:08.547Z,98636.72
2023-03-26T08:33:14.017Z,98644.94
2023-03-26T08:36:16.254Z,98640.00
2023-03-26T08:39:19.827Z,98643.53
2023-03-26T08:42:21.946Z,98645.47
2023-03-26T08:45:27.159Z,98642.50
2023-03-26T08:48:58.939Z,98641.16
2023-03-26T08:52:09.985Z,98657.19
2023-03-26T08:55:22.223Z,98647.69
2023-03-26T08:58:39.389Z,98646.03
2023-03-26T09:02:35.912Z,98645.38
2023-03-26T09:05:56.739Z,98646.59
2023-03-26T09:09:24.971Z,98648.50
2023-03-26T09:12:46.544Z,98645.38
2023-03-26T09:16:05.501Z,98646.84
2023-03-26T09:19:44.621Z,98643.16
2023-03-26T09:22:53.264Z,98641.41
2023-03-26T09:26:04.400Z,98629.34
2023-03-26T09:29:15.682Z,98638.16
2023-03-26T09:32:30.056Z,98635.31
2023-03-26T09:35:53.285Z,98604.06
2023-03-26T09:39:33.247Z,98635.41
2023-03-26T09:43:04.674Z,98637.47
2023-03-26T09:46:31.641Z,98626.59
2023-03-26T09:49:52.142Z,98626.63
2023-03-26T09:53:12.916Z,98627.81
2023-03-26T09:56:26.085Z,98613.41
2023-03-26T09:59:38.384Z,98624.44
2023-03-26T10:03:09.074Z,98624.41
2023-03-26T10:06:26.643Z,98623.78
2023-03-26T10:09:55.574Z,98618.75
2023-03-26T10:13:14.412Z,98613.13
2023-03-26T10:16:31.690Z,98613.53
2023-03-26T10:20:04.949Z,98606.34
2023-03-26T10:23:34.497Z,98603.09
2023-03-26T10:27:09.309Z,98597.63
2023-03-26T10:30:22.188Z,98597.38
2023-03-26T10:33:39.448Z,98587.84
2023-03-26T10:37:10.564Z,98592.66
2023-03-26T10:40:27.857Z,98590.84
2023-03-26T10:44:08.743Z,98583.38
2023-03-26T10:47:14.242Z,98580.44
2023-03-26T10:50:44.418Z,98579.88
2023-03-26T10:53:58.820Z,98574.16
2023-03-26T10:57:11.920Z,98583.22
2023-03-26T11:00:25.673Z,98590.38
2023-03-26T11:03:43.993Z,98585.59
2023-03-26T11:07:07.412Z,98575.09
2023-03-26T11:10:28.107Z,98575.38
2023-03-26T11:13:59.663Z,98573.78
2023-03-26T11:17:40.107Z,98565.75
2023-03-26T11:20:51.230Z,98569.00
2023-03-26T11:24:07.679Z,98570.09
2023-03-26T11:27:25.870Z,98559.63
2023-03-26T11:30:49.833Z,98559.84
2023-03-26T11:33:56.579Z,98557.09
2023-03-26T11:37:01.718Z,98559.28
2023-03-26T11:43:17.246Z,98546.00
2023-03-26T11:46:23.096Z,98536.84
2023-03-26T11:49:26.537Z,98531.75
2023-03-26T11:52:28.885Z,98529.38
2023-03-26T11:55:31.764Z,98528.66
2023-03-26T11:59:06.094Z,98532.66
2023-03-26T12:02:11.640Z,98534.50
2023-03-26T12:05:18.434Z,98533.13
2023-03-26T12:08:27.415Z,98522.13
2023-03-26T12:11:35.407Z,98525.22
2023-03-26T12:14:42.882Z,98520.63
2023-03-26T12:17:47.817Z,98522.44
2023-03-26T12:21:13.202Z,98519.91
2023-03-26T12:24:35.642Z,98516.44
2023-03-26T12:27:42.022Z,98514.66
2023-03-26T12:31:05.491Z,98507.13
2023-03-26T12:34:15.476Z,98500.25
2023-03-26T12:37:38.646Z,98486.06
2023-03-26T12:40:42.716Z,98488.16
2023-03-26T12:44:49.934Z,98483.16
2023-03-26T12:47:55.363Z,98482.44
2023-03-26T12:51:06.476Z,98476.13
2023-03-26T12:54:31.467Z,98467.91
2023-03-26T12:57:41.276Z,98462.13
2023-03-26T13:01:02.470Z,98451.84
2023-03-26T13:04:28.805Z,98458.69
2023-03-26T13:07:49.679Z,98457.16
2023-03-26T13:11:08.343Z,98449.47
2023-03-26T13:14:31.416Z,98448.38
2023-03-26T13:17:36.460Z,98430.44
2023-03-26T13:20:50.584Z,98427.78
2023-03-26T13:24:12.165Z,98427.75
2023-03-26T13:27:21.045Z,98410.03
2023-03-26T13:30:36.822Z,98410.22
2023-03-26T13:33:47.647Z,98403.47
2023-03-26T13:36:58.906Z,98404.66
2023-03-26T13:40:33.554Z,98399.59
2023-03-26T13:43:58.563Z,98392.34
2023-03-26T13:47:07.330Z,98389.44
2023-03-26T13:50:22.213Z,98384.00
2023-03-26T13:53:35.088Z,98382.19
2023-03-26T13:56:47.747Z,98378.81
2023-03-26T14:00:06.794Z,98374.50
2023-03-26T14:03:29.603Z,98374.28
2023-03-26T14:06:42.188Z,98366.94
2023-03-26T14:09:51.370Z,98359.63
2023-03-26T14:13:05.754Z,98361.00
2023-03-26T14:16:36.887Z,98358.84
2023-03-26T14:19:50.072Z,98352.53
2023-03-26T14:23:17.279Z,98354.25
2023-03-26T14:26:37.490Z,98347.97
2023-03-26T14:29:58.385Z,98353.09
2023-03-26T14:33:28.162Z,98356.66
2023-03-26T14:36:39.514Z,98355.69
2023-03-26T14:40:19.234Z,98353.22
2023-03-26T14:43:37.316Z,98363.00
2023-03-26T14:47:21.718Z,98356.09
2023-03-26T14:50:55.467Z,98352.63
2023-03-26T14:54:05.803Z,98355.44
2023-03-26T14:57:19.890Z,98350.00
2023-03-26T15:00:31.110Z,98346.84
2023-03-26T15:03:52.054Z,98349.91
2023-03-26T15:07:09.058Z,98345.59
2023-03-26T15:10:52.402Z,98339.28
2023-03-26T15:14:18.542Z,98334.03
2023-03-26T15:17:29.752Z,98332.84
2023-03-26T15:21:09.607Z,98331.81
2023-03-26T15:24:27.460Z,98330.63
2023-03-26T15:27:54.068Z,98325.44
2023-03-26T15:31:42.648Z,98320.25
2023-03-26T15:35:06.038Z,98326.75
2023-03-26T15:38:21.033Z,98323.66
2023-03-26T15:41:49.133Z,98324.63
2023-03-26T15:44:54.087Z,98320.69
2023-03-26T15:47:56.331Z,98322.41
2023-03-26T15:51:28.679Z,98310.91
2023-03-26T15:54:45.637Z,98300.34
2023-03-26T15:57:57.200Z,98298.59
2023-03-26T16:01:09.028Z,98299.53
2023-03-26T16:04:38.732Z,98291.09
2023-03-26T16:07:53.106Z,98282.28
2023-03-26T16:10:56.735Z,98275.97
2023-03-26T16:14:20.466Z,98271.16
2023-03-26T16:17:24.475Z,98274.19
2023-03-26T16:20:43.921Z,98268.28
2023-03-26T16:23:49.386Z,98270.22
2023-03-26T16:26:51.375Z,98261.88
2023-03-26T16:30:14.584Z,98267.41
2023-03-26T16:33:21.223Z,98269.22
2023-03-26T16:36:49.913Z,98261.66
2023-03-26T16:39:52.791Z,98266.66
2023-03-26T16:43:19.581Z,98268.19
2023-03-26T16:46:49.097Z,98265.66
2023-03-26T16:50:08.578Z,98265.81
2023-03-26T16:53:42.771Z,98261.03
2023-03-26T16:56:58.230Z,98259.13
2023-03-26T17:00:18.711Z,98261.03
2023-03-26T17:04:25.789Z,98251.50
2023-03-26T17:08:02.782Z,98252.88
2023-03-26T17:11:44.651Z,98250.97
2023-03-26T17:15:30.722Z,98251.66
2023-03-26T17:19:04.341Z,98263.47
2023-03-26T17:22:18.697Z,98263.22
2023-03-26T17:25:32.507Z,98265.38
2023-03-26T17:29:07.992Z,98271.09
2023-03-26T17:32:12.789Z,98265.66
2023-03-26T17:35:15.779Z,98265.38
2023-03-26T17:38:18.235Z,98264.22
2023-03-26T17:42:08.506Z,98267.72
2023-03-26T17:45:29.080Z,98268.00
2023-03-26T17:48:38.116Z,98261.03
2023-03-26T17:51:48.782Z,98264.06
2023-03-26T17:54:55.510Z,98260.91
2023-03-26T17:58:00.392Z,98261.72
2023-03-26T18:01:12.442Z,98260.22
2023-03-26T18:04:19.854Z,98258.59
2023-03-26T18:07:46.364Z,98252.75
2023-03-26T18:11:28.140Z,98248.22
2023-03-26T18:15:13.011Z,98242.44
2023-03-26T18:18:23.821Z,98241.34
2023-03-26T18:21:39.287Z,98233.59
2023-03-26T18:24:42.287Z,98229.53
2023-03-26T18:27:44.984Z,98227.56
2023-03-26T18:30:48.870Z,98235.91
2023-03-26T18:33:56.971Z,98229.94
2023-03-26T18:37:15.198Z,98228.31
2023-03-26T18:40:21.452Z,98221.09
2023-03-26T18:43:34.355Z,98219.63
2023-03-26T18:46:37.464Z,98216.06
2023-03-26T18:49:46.090Z,98223.56
2023-03-26T18:52:48.769Z,98223.72
2023-03-26T18:55:52.191Z,98216.66
2023-03-26T18:58:58.358Z,98215.69
2023-03-26T19:02:09.131Z,98221.81
2023-03-26T19:05:16.789Z,98212.81
2023-03-26T19:08:21.546Z,98206.28
2023-03-26T19:11:26.383Z,98208.56
2023-03-26T19:14:28.930Z,98209.34
2023-03-26T19:17:38.727Z,98197.22
2023-03-26T19:20:49.503Z,98192.63
2023-03-26T19:23:52.982Z,98188.53
2023-03-26T19:26:56.363Z,98183.38
2023-03-26T19:29:58.701Z,98178.47
2023-03-26T19:33:18.352Z,98169.50
2023-03-26T19:36:24.553Z,98168.00
2023-03-26T19:39:47.163Z,98168.06
2023-03-26T19:42:50.834Z,98155.31
2023-03-26T19:45:59.606Z,98150.00
2023-03-26T19:49:04.460Z,98146.22
2023-03-26T19:52:22.232Z,98131.44
2023-03-26T19:55:24.617Z,98130.09
2023-03-26T19:58:27.749Z,98135.00
2023-03-26T20:01:31.967Z,98127.38
2023-03-26T20:04:35.305Z,98124.94
2023-03-26T20:07:39.346Z,98118.97
2023-03-26T20:10:42.941Z,98119.75
2023-03-26T20:13:45.428Z,98111.84
2023-03-26T20:16:47.525Z,98111.00
2023-03-26T20:20:05.899Z,98111.84
2023-03-26T20:23:17.698Z,98116.31
2023-03-26T20:26:21.395Z,98104.66
2023-03-26T20:29:24.023Z,98108.00
2023-03-26T20:32:27.472Z,98102.97
2023-03-26T20:35:35.990Z,98095.94
2023-03-26T20:38:40.000Z,98098.19
2023-03-26T20:41:47.803Z,98090.50
2023-03-26T20:44:49.871Z,98089.38
2023-03-26T20:47:52.218Z,98079.44
2023-03-26T20:50:54.714Z,98069.41
2023-03-26T20:53:56.782Z,98068.81
2023-03-26T20:56:58.923Z,98060.72
2023-03-26T21:00:01.126Z,98043.41
2023-03-26T21:03:03.515Z,98056.81
2023-03-26T21:06:12.489Z,98047.59
2023-03-26T21:09:23.830Z,98042.25
2023-03-26T21:12:34.989Z,98033.59
2023-03-26T21:15:37.507Z,98025.59
2023-03-26T21:18:40.190Z,98022.97
2023-03-26T21:21:52.590Z,98012.00
2023-03-26T21:25:01.902Z,97995.09
2023-03-26T21:28:06.904Z,98001.25
2023-03-26T21:31:15.417Z,97997.47
2023-03-26T21:34:17.978Z,97987.69
2023-03-26T21:37:20.516Z,97978.75
2023-03-26T21:40:22.943Z,97984.38
2023-03-26T21:43:25.441Z,97981.88
2023-03-26T21:46:27.760Z,97982.00
2023-03-26T21:49:30.625Z,97982.63
2023-03-26T21:52:33.291Z,97976.94
2023-03-26T21:55:48.607Z,97967.75
2023-03-26T21:59:10.949Z,97972.16
2023-03-26T22:02:29.764Z,97960.44
2023-03-26T22:05:37.882Z,97960.28
2023-03-26T22:08:41.575Z,97948.47
2023-03-26T22:11:43.967Z,97947.78
2023-03-26T22:14:46.087Z,97947.59
2023-03-26T22:21:08.324Z,97938.69
2023-03-26T22:24:10.375Z,97937.19
2023-03-26T22:27:13.232Z,97929.75
2023-03-26T22:30:17.056Z,97923.03
2023-03-26T22:33:19.177Z,97919.88
2023-03-26T22:36:22.762Z,97911.19
2023-03-26T22:39:26.015Z,97910.34
2023-03-26T22:42:28.177Z,97904.28
2023-03-26T22:45:30.301Z,97892.69
2023-03-26T22:48:33.403Z,97897.19
2023-03-26T22:51:35.810Z,97897.69
2023-03-26T22:54:38.804Z,97892.25
2023-03-26T22:57:41.501Z,97892.22
2023-03-26T23:00:46.306Z,97892.78
2023-03-26T23:03:48.902Z,97896.53
2023-03-26T23:06:50.964Z,97895.00
2023-03-26T23:09:53.870Z,97898.09
2023-03-26T23:12:56.319Z,97890.09
2023-03-26T23:15:58.709Z,97888.38
2023-03-26T23:19:01.012Z,97891.31
2023-03-26T23:22:03.304Z,97884.44
2023-03-26T23:25:05.810Z,97881.13
2023-03-26T23:28:08.422Z,97878.78
2023-03-26T23:31:12.431Z,97871.47
2023-03-26T23:34:16.901Z,97871.03
2023-03-26T23:37:23.358Z,97866.94
2023-03-26T23:40:27.530Z,97870.81
2023-03-26T23:43:30.140Z,97871.94
2023-03-26T23:46:41.622Z,97878.06
2023-03-26T23:49:44.502Z,97878.38
2023-03-26T23:52:47.051Z,97882.13
2023-03-26T23:55:51.264Z,97886.06
2023-03-26T23:58:55.427Z,97868.47
